PDX weather

Portland International Airport
Portland, Oregon, United States

Public forecast

Using degrees Fahrenheit for public forecast. Weather courtesy of forecast.io.

METAR (pilot weather report)

Retrieved 2017/08/21 06:53 UTC (50 minutes ago):

KPDX 210653Z 33007KT 10SM CLR 19/14 A3007 RMK AO2 SLP180 T01940144

TAF (pilot weather forecast)

Retrieved 2017/08/21 06:42 UTC (1 hour ago):

TAF KPDX 210540Z 2106/2206 33009KT P6SM SKC FM210800 32005KT P6SM SKC FM211200 33004KT P6SM SCT020 FM211600 32004KT P6SM SKC FM212200 30010KT P6SM FEW200 FM220400 31005KT P6SM BKN250